createdAt,value
2022-12-28T00:02:20.654Z,6.22
2022-12-28T00:04:49.018Z,10.75
2022-12-28T00:07:17.041Z,7.37
2022-12-28T00:09:44.918Z,8.60
2022-12-28T00:12:12.599Z,5.80
2022-12-28T00:14:40.463Z,4.60
2022-12-28T00:17:08.159Z,7.10
2022-12-28T00:19:35.905Z,5.97
2022-12-28T00:22:03.561Z,5.12
2022-12-28T00:24:31.224Z,5.40
2022-12-28T00:26:59.254Z,4.68
2022-12-28T00:29:26.904Z,5.72
2022-12-28T00:31:54.791Z,8.27
2022-12-28T00:34:22.557Z,7.05
2022-12-28T00:37:11.885Z,5.15
2022-12-28T00:39:41.265Z,3.70
2022-12-28T00:42:09.431Z,4.45
2022-12-28T00:44:37.223Z,5.75
2022-12-28T00:47:04.880Z,3.05
2022-12-28T00:49:32.803Z,4.72
2022-12-28T00:52:00.567Z,4.53
2022-12-28T00:54:28.338Z,5.43
2022-12-28T00:56:55.993Z,4.10
2022-12-28T00:59:23.768Z,5.15
2022-12-28T01:01:51.538Z,4.53
2022-12-28T01:04:19.364Z,5.37
2022-12-28T01:06:47.032Z,4.75
2022-12-28T01:09:14.796Z,5.43
2022-12-28T01:11:42.429Z,7.20
2022-12-28T01:14:10.286Z,4.65
2022-12-28T01:16:38.205Z,6.37
2022-12-28T01:19:08.113Z,5.93
2022-12-28T01:21:37.349Z,4.55
2022-12-28T01:24:08.873Z,5.60
2022-12-28T01:26:37.172Z,7.20
2022-12-28T01:29:04.925Z,8.77
2022-12-28T01:31:32.981Z,5.65
2022-12-28T01:34:01.450Z,8.65
2022-12-28T01:36:32.669Z,9.48
2022-12-28T01:39:04.696Z,7.70
2022-12-28T01:41:33.493Z,7.32
2022-12-28T01:44:01.038Z,8.70
2022-12-28T01:46:45.244Z,5.62
2022-12-28T01:49:20.319Z,8.93
2022-12-28T01:51:57.040Z,9.18
2022-12-28T01:54:29.064Z,7.15
2022-12-28T01:56:57.053Z,6.10
2022-12-28T01:59:29.595Z,5.40
2022-12-28T02:01:57.889Z,7.03
2022-12-28T02:04:27.383Z,6.10
2022-12-28T02:06:56.123Z,6.00
2022-12-28T02:09:32.909Z,5.55
2022-12-28T02:12:01.890Z,6.05
2022-12-28T02:14:30.601Z,6.68
2022-12-28T02:16:58.481Z,6.95
2022-12-28T02:19:42.448Z,6.62
2022-12-28T02:22:16.293Z,5.22
2022-12-28T02:25:13.877Z,7.20
2022-12-28T02:27:53.798Z,6.45
2022-12-28T02:30:21.723Z,7.85
2022-12-28T02:33:12.376Z,7.28
2022-12-28T02:35:46.309Z,8.25
2022-12-28T02:38:17.734Z,6.62
2022-12-28T02:40:57.240Z,8.43
2022-12-28T02:43:25.264Z,6.35
2022-12-28T02:46:11.511Z,6.60
2022-12-28T02:49:04.158Z,5.90
2022-12-28T02:51:57.013Z,6.37
2022-12-28T02:54:52.034Z,8.90
2022-12-28T02:57:39.779Z,7.20
2022-12-28T03:00:18.273Z,7.95
2022-12-28T03:03:31.690Z,8.82
2022-12-28T03:06:30.095Z,9.35
2022-12-28T03:09:05.252Z,8.35
2022-12-28T03:11:45.334Z,13.40
2022-12-28T03:14:25.064Z,13.48
2022-12-28T03:17:14.898Z,9.70
2022-12-28T03:20:10.906Z,11.68
2022-12-28T03:23:00.063Z,11.10
2022-12-28T03:25:50.663Z,9.80
2022-12-28T03:28:41.744Z,10.88
2022-12-28T03:31:15.811Z,18.02
2022-12-28T03:33:51.392Z,17.75
2022-12-28T03:36:21.764Z,14.90
2022-12-28T03:39:04.846Z,19.00
2022-12-28T03:41:48.585Z,20.98
2022-12-28T03:44:25.862Z,16.90
2022-12-28T03:47:12.521Z,26.40
2022-12-28T03:49:41.422Z,21.77
2022-12-28T03:52:11.821Z,18.67
2022-12-28T03:54:41.458Z,12.15
2022-12-28T03:57:09.185Z,24.50
2022-12-28T03:59:36.826Z,19.30
2022-12-28T04:02:04.601Z,23.10
2022-12-28T04:04:32.328Z,15.18
2022-12-28T04:06:59.913Z,15.00
2022-12-28T04:09:27.881Z,13.27
2022-12-28T04:11:55.549Z,12.88
2022-12-28T04:14:23.203Z,18.90
2022-12-28T04:16:50.895Z,16.02
2022-12-28T04:19:18.540Z,24.42
2022-12-28T04:21:46.197Z,29.42
2022-12-28T04:24:13.846Z,17.62
2022-12-28T04:26:41.443Z,42.45
2022-12-28T04:29:09.541Z,17.48
2022-12-28T04:31:37.233Z,15.60
2022-12-28T04:34:05.090Z,20.70
2022-12-28T04:36:32.991Z,14.00
2022-12-28T04:39:01.344Z,23.40
2022-12-28T04:41:29.111Z,17.08
2022-12-28T04:43:57.150Z,15.15
2022-12-28T04:46:26.038Z,16.08
2022-12-28T04:48:54.002Z,26.37
2022-12-28T04:51:27.219Z,13.00
2022-12-28T04:53:56.014Z,12.82
2022-12-28T04:56:25.360Z,20.08
2022-12-28T04:58:57.624Z,16.85
2022-12-28T05:01:25.847Z,26.95
2022-12-28T05:03:58.013Z,26.58
2022-12-28T05:06:28.788Z,33.08
2022-12-28T05:08:58.193Z,15.65
2022-12-28T05:11:29.139Z,38.13
2022-12-28T05:13:57.657Z,54.40
2022-12-28T05:16:27.791Z,28.67
2022-12-28T05:18:57.150Z,13.48
2022-12-28T05:21:27.405Z,30.50
2022-12-28T05:23:55.747Z,21.15
2022-12-28T05:26:26.749Z,28.00
2022-12-28T05:28:54.488Z,22.08
2022-12-28T05:31:24.078Z,21.58
2022-12-28T05:33:52.032Z,23.50
2022-12-28T05:36:26.418Z,19.67
2022-12-28T05:38:56.330Z,30.45
2022-12-28T05:41:27.272Z,22.05
2022-12-28T05:43:55.353Z,33.35
2022-12-28T05:46:25.991Z,47.17
2022-12-28T05:48:56.192Z,39.33
2022-12-28T05:51:29.481Z,32.88
2022-12-28T05:53:59.331Z,14.50
2022-12-28T05:56:29.868Z,27.60
2022-12-28T05:59:00.207Z,47.08
2022-12-28T06:01:31.638Z,26.95
2022-12-28T06:04:02.898Z,32.03
2022-12-28T06:06:32.172Z,30.12
2022-12-28T06:08:59.949Z,38.85
2022-12-28T06:11:29.902Z,25.77
2022-12-28T06:13:59.515Z,39.08
2022-12-28T06:16:30.059Z,48.17
2022-12-28T06:18:57.780Z,28.75
2022-12-28T06:21:31.389Z,15.73
2022-12-28T06:24:00.837Z,34.45
2022-12-28T06:26:31.236Z,32.03
2022-12-28T06:28:59.355Z,40.12
2022-12-28T06:31:33.279Z,20.73
2022-12-28T06:34:02.427Z,39.08
2022-12-28T06:36:35.345Z,36.90
2022-12-28T06:39:04.471Z,39.50
2022-12-28T06:41:32.242Z,17.02
2022-12-28T06:44:00.614Z,30.88
2022-12-28T06:46:30.689Z,42.08
2022-12-28T06:48:59.054Z,34.88
2022-12-28T06:51:29.292Z,39.42
2022-12-28T06:53:57.433Z,26.33
2022-12-28T06:56:28.551Z,18.15
2022-12-28T06:59:02.363Z,25.45
2022-12-28T07:01:36.904Z,25.77
2022-12-28T07:04:06.618Z,14.18
2022-12-28T07:06:40.429Z,11.48
2022-12-28T07:09:11.685Z,23.12
2022-12-28T07:11:39.511Z,32.45
2022-12-28T07:14:07.417Z,34.72
2022-12-28T07:19:01.371Z,19.65
2022-12-28T07:21:31.934Z,14.82
2022-12-28T07:24:00.607Z,24.27
2022-12-28T07:26:30.856Z,23.50
2022-12-28T07:29:00.776Z,34.17
2022-12-28T07:31:39.745Z,17.37
2022-12-28T07:34:11.822Z,26.90
2022-12-28T07:36:39.707Z,13.77
2022-12-28T07:39:07.491Z,26.90
2022-12-28T07:41:37.219Z,21.67
2022-12-28T07:44:05.020Z,15.82
2022-12-28T07:46:35.053Z,17.37
2022-12-28T07:49:03.006Z,21.50
2022-12-28T07:51:33.843Z,10.40
2022-12-28T07:54:02.016Z,10.23
2022-12-28T07:56:30.932Z,13.48
2022-12-28T07:59:03.573Z,11.52
2022-12-28T08:01:33.333Z,8.40
2022-12-28T08:04:06.175Z,12.02
2022-12-28T08:06:39.195Z,17.23
2022-12-28T08:09:08.298Z,14.50
2022-12-28T08:11:39.834Z,14.40
2022-12-28T08:14:08.599Z,9.95
2022-12-28T08:16:39.469Z,12.82
2022-12-28T08:19:08.710Z,14.60
2022-12-28T08:21:39.613Z,15.05
2022-12-28T08:24:08.855Z,9.93
2022-12-28T08:26:40.915Z,10.52
2022-12-28T08:29:12.729Z,11.07
2022-12-28T08:31:42.875Z,10.13
2022-12-28T08:34:14.285Z,7.45
2022-12-28T08:36:42.034Z,8.68
2022-12-28T08:39:09.999Z,8.52
2022-12-28T08:41:37.981Z,8.75
2022-12-28T08:44:05.906Z,7.37
2022-12-28T08:46:35.725Z,8.40
2022-12-28T08:49:03.497Z,12.07
2022-12-28T08:51:34.452Z,16.77
2022-12-28T08:54:03.437Z,13.48
2022-12-28T08:56:34.323Z,15.55
2022-12-28T08:59:02.353Z,10.50
2022-12-28T09:01:37.335Z,13.45
2022-12-28T09:04:11.455Z,10.90
2022-12-28T09:06:40.192Z,15.60
2022-12-28T09:09:09.930Z,15.15
2022-12-28T09:11:39.068Z,18.48
2022-12-28T09:14:09.662Z,11.18
2022-12-28T09:16:38.971Z,36.72
2022-12-28T09:19:08.990Z,28.15
2022-12-28T09:21:39.255Z,26.67
2022-12-28T09:24:07.640Z,24.90
2022-12-28T09:26:38.394Z,15.93
2022-12-28T09:29:09.701Z,16.90
2022-12-28T09:31:38.315Z,28.67
2022-12-28T09:36:55.303Z,12.07
2022-12-28T09:39:25.676Z,25.08
2022-12-28T09:41:58.910Z,12.88
2022-12-28T09:44:49.389Z,19.12
2022-12-28T09:47:41.109Z,21.17
2022-12-28T09:50:31.000Z,25.85
2022-12-28T09:53:07.696Z,22.37
2022-12-28T09:55:39.296Z,19.80
2022-12-28T09:58:15.368Z,17.83
2022-12-28T10:00:47.340Z,10.55
2022-12-28T10:03:23.022Z,10.00
2022-12-28T10:05:52.751Z,12.95
2022-12-28T10:08:23.384Z,10.70
2022-12-28T10:10:53.173Z,13.68
2022-12-28T10:13:53.572Z,11.60
2022-12-28T10:16:20.475Z,9.65
2022-12-28T10:18:49.800Z,13.02
2022-12-28T10:21:29.957Z,16.27
2022-12-28T10:26:48.773Z,14.90
2022-12-28T10:29:21.323Z,15.63
2022-12-28T10:32:06.291Z,13.75
2022-12-28T10:34:36.204Z,15.07
2022-12-28T10:37:15.482Z,14.50
2022-12-28T10:40:07.373Z,15.48
2022-12-28T10:42:41.585Z,12.68
2022-12-28T10:45:20.139Z,10.68
2022-12-28T10:47:50.710Z,9.77
2022-12-28T10:50:49.331Z,13.23
2022-12-28T10:53:20.536Z,15.63
2022-12-28T10:55:48.230Z,8.32
2022-12-28T10:58:30.333Z,10.55
2022-12-28T11:01:25.065Z,9.25
2022-12-28T11:04:02.905Z,10.35
2022-12-28T11:06:35.282Z,8.45
2022-12-28T11:09:21.244Z,8.88
2022-12-28T11:11:50.637Z,9.35
2022-12-28T11:14:37.506Z,11.98
2022-12-28T11:17:18.414Z,9.18
2022-12-28T11:19:46.669Z,9.98
2022-12-28T11:22:21.673Z,8.82
2022-12-28T11:24:49.495Z,11.30
2022-12-28T11:27:20.767Z,9.93
2022-12-28T11:29:51.540Z,10.18
2022-12-28T11:32:31.708Z,8.38
2022-12-28T11:35:00.569Z,8.30
2022-12-28T11:37:28.248Z,7.53
2022-12-28T11:39:56.517Z,9.18
2022-12-28T11:42:55.316Z,13.77
2022-12-28T11:45:53.037Z,10.13
2022-12-28T11:48:42.486Z,18.35
2022-12-28T11:51:20.387Z,12.40
2022-12-28T11:53:47.990Z,11.55
2022-12-28T11:56:24.791Z,8.52
2022-12-28T11:59:04.720Z,8.55
2022-12-28T12:01:34.717Z,9.88
2022-12-28T12:04:02.473Z,8.68
2022-12-28T12:06:45.924Z,8.43
2022-12-28T12:09:22.654Z,6.87
2022-12-28T12:12:01.666Z,7.82
2022-12-28T12:14:40.567Z,5.20
2022-12-28T12:17:22.964Z,7.53
2022-12-28T12:19:55.512Z,5.45
2022-12-28T12:22:27.020Z,6.57
2022-12-28T12:25:08.781Z,8.40
2022-12-28T12:27:42.484Z,6.28
2022-12-28T12:30:23.601Z,6.97
2022-12-28T12:32:51.170Z,15.93
2022-12-28T12:35:23.083Z,7.60
2022-12-28T12:38:21.779Z,7.30
2022-12-28T12:41:41.547Z,7.10
2022-12-28T12:44:27.587Z,6.72
2022-12-28T12:47:28.457Z,7.87
2022-12-28T12:50:21.475Z,6.93
2022-12-28T12:53:03.498Z,8.80
2022-12-28T12:55:39.312Z,8.32
2022-12-28T12:58:24.289Z,10.27
2022-12-28T13:01:07.277Z,10.25
2022-12-28T13:03:50.783Z,8.85
2022-12-28T13:06:22.645Z,7.45
2022-12-28T13:09:01.815Z,7.93
2022-12-28T13:11:36.210Z,7.25
2022-12-28T13:14:04.109Z,6.30
2022-12-28T13:16:33.694Z,5.05
2022-12-28T13:19:06.776Z,5.25
2022-12-28T13:21:50.245Z,3.20
2022-12-28T13:24:31.652Z,2.72
2022-12-28T13:27:03.304Z,2.42
2022-12-28T13:29:40.049Z,2.47
2022-12-28T13:32:32.876Z,2.17
2022-12-28T13:35:18.415Z,1.55
2022-12-28T13:38:25.595Z,2.40
2022-12-28T13:40:54.840Z,3.58
2022-12-28T13:43:37.675Z,2.10
2022-12-28T13:46:10.202Z,2.60
2022-12-28T13:48:41.972Z,2.35
2022-12-28T13:51:13.673Z,2.45
2022-12-28T13:53:46.566Z,1.90
2022-12-28T13:56:17.563Z,2.00
2022-12-28T13:58:53.307Z,1.52
2022-12-28T14:01:25.465Z,2.42
2022-12-28T14:04:25.965Z,1.73
2022-12-28T14:06:49.419Z,2.28
2022-12-28T14:09:18.514Z,1.08
2022-12-28T14:11:47.616Z,1.58
2022-12-28T14:14:16.266Z,1.02
2022-12-28T14:16:44.711Z,1.52
2022-12-28T14:19:13.067Z,1.20
2022-12-28T14:21:46.183Z,2.72
2022-12-28T14:24:16.594Z,1.55
2022-12-28T14:26:59.483Z,1.35
2022-12-28T14:29:32.527Z,1.20
2022-12-28T14:32:02.775Z,1.10
2022-12-28T14:34:34.421Z,2.67
2022-12-28T14:37:02.703Z,2.45
2022-12-28T14:39:32.188Z,3.17
2022-12-28T14:42:00.815Z,1.98
2022-12-28T14:44:34.944Z,1.98
2022-12-28T14:47:02.776Z,0.90
2022-12-28T14:49:30.422Z,2.80
2022-12-28T14:52:18.382Z,1.87
2022-12-28T14:54:46.988Z,1.65
2022-12-28T14:57:31.196Z,1.02
2022-12-28T15:00:04.195Z,1.30
2022-12-28T15:02:34.832Z,1.75
2022-12-28T15:05:03.691Z,1.55
2022-12-28T15:07:34.480Z,1.27
2022-12-28T15:10:02.145Z,1.40
2022-12-28T15:12:29.799Z,1.60
2022-12-28T15:14:57.470Z,1.40
2022-12-28T15:17:31.467Z,1.75
2022-12-28T15:20:01.283Z,1.48
2022-12-28T15:22:29.028Z,1.15
2022-12-28T15:24:56.785Z,1.52
2022-12-28T15:27:24.404Z,1.75
2022-12-28T15:30:09.134Z,1.85
2022-12-28T15:32:39.687Z,2.08
2022-12-28T15:35:07.904Z,3.08
2022-12-28T15:37:35.616Z,1.83
2022-12-28T15:40:03.375Z,2.47
2022-12-28T15:42:36.532Z,1.90
2022-12-28T15:45:09.000Z,1.10
2022-12-28T15:47:36.726Z,1.77
2022-12-28T15:50:05.894Z,2.53
2022-12-28T15:52:34.147Z,2.08
2022-12-28T15:55:02.025Z,2.80
2022-12-28T15:57:30.064Z,3.42
2022-12-28T15:59:58.183Z,2.85
2022-12-28T16:02:26.109Z,3.72
2022-12-28T16:04:53.977Z,2.25
2022-12-28T16:07:21.835Z,2.55
2022-12-28T16:09:50.140Z,2.85
2022-12-28T16:12:18.336Z,2.37
2022-12-28T16:14:48.108Z,1.90
2022-12-28T16:17:16.288Z,1.90
2022-12-28T16:19:44.043Z,1.77
2022-12-28T16:22:11.870Z,2.12
2022-12-28T16:24:40.434Z,2.40
2022-12-28T16:27:11.629Z,3.60
2022-12-28T16:29:39.348Z,3.87
2022-12-28T16:32:09.134Z,3.35
2022-12-28T16:34:36.851Z,3.45
2022-12-28T16:37:05.790Z,6.10
2022-12-28T16:39:34.153Z,6.20
2022-12-28T16:42:02.109Z,5.68
2022-12-28T16:44:30.639Z,5.35
2022-12-28T16:47:00.276Z,3.58
2022-12-28T16:49:29.541Z,3.85
2022-12-28T16:51:58.362Z,3.53
2022-12-28T16:54:28.960Z,5.20
2022-12-28T16:56:58.414Z,3.47
2022-12-28T16:59:29.550Z,4.70
2022-12-28T17:01:59.718Z,3.50
2022-12-28T17:04:29.700Z,4.15
2022-12-28T17:06:57.878Z,5.03
2022-12-28T17:09:27.151Z,6.15
2022-12-28T17:11:54.894Z,6.15
2022-12-28T17:14:36.903Z,5.97
2022-12-28T17:17:06.853Z,5.75
2022-12-28T17:19:36.320Z,4.35
2022-12-28T17:22:05.329Z,8.13
2022-12-28T17:24:33.059Z,4.57
2022-12-28T17:27:07.231Z,3.40
2022-12-28T17:29:38.402Z,2.95
2022-12-28T17:32:08.129Z,3.17
2022-12-28T17:34:35.984Z,4.47
2022-12-28T17:37:03.630Z,3.85
2022-12-28T17:39:37.509Z,3.95
2022-12-28T17:42:07.361Z,5.00
2022-12-28T17:44:35.157Z,4.43
2022-12-28T17:47:03.640Z,3.35
2022-12-28T17:49:31.381Z,3.53
2022-12-28T17:51:59.058Z,3.10
2022-12-28T17:54:26.752Z,5.20
2022-12-28T17:56:54.443Z,5.47
2022-12-28T17:59:22.168Z,4.05
2022-12-28T18:01:49.886Z,4.60
2022-12-28T18:04:18.714Z,4.57
2022-12-28T18:06:46.463Z,3.30
2022-12-28T18:09:14.150Z,3.83
2022-12-28T18:11:42.020Z,3.35
2022-12-28T18:14:14.280Z,3.90
2022-12-28T18:16:42.387Z,3.95
2022-12-28T18:19:10.113Z,4.65
2022-12-28T18:21:37.801Z,5.12
2022-12-28T18:24:05.979Z,5.37
2022-12-28T18:26:33.705Z,5.97
2022-12-28T18:29:01.560Z,6.18
2022-12-28T18:31:29.353Z,4.75
2022-12-28T18:33:57.377Z,4.03
2022-12-28T18:36:25.197Z,4.28
2022-12-28T18:38:52.967Z,4.90
2022-12-28T18:41:22.296Z,3.87
2022-12-28T18:43:52.452Z,4.47
2022-12-28T18:46:20.285Z,3.83
2022-12-28T18:48:48.068Z,4.37
2022-12-28T18:51:20.946Z,4.55
2022-12-28T18:53:48.687Z,4.15
2022-12-28T18:56:18.685Z,4.28
2022-12-28T18:58:51.060Z,3.95
2022-12-28T19:02:05.260Z,5.40
2022-12-28T19:04:12.232Z,6.40
2022-12-28T19:06:40.744Z,5.55
2022-12-28T19:09:10.853Z,6.35
2022-12-28T19:11:40.462Z,5.20
2022-12-28T19:14:11.809Z,7.20
2022-12-28T19:16:39.639Z,4.15
2022-12-28T19:19:07.481Z,5.22
2022-12-28T19:21:37.526Z,3.58
2022-12-28T19:24:16.331Z,6.82
2022-12-28T19:26:44.747Z,4.22
2022-12-28T19:29:17.309Z,5.45
2022-12-28T19:31:45.459Z,3.85
2022-12-28T19:34:13.339Z,6.07
2022-12-28T19:36:41.016Z,6.82
2022-12-28T19:39:08.691Z,7.78
2022-12-28T19:41:36.762Z,6.18
2022-12-28T19:44:04.612Z,6.25
2022-12-28T19:46:32.704Z,4.90
2022-12-28T19:49:02.116Z,5.45
2022-12-28T19:51:31.912Z,4.10
2022-12-28T19:54:01.104Z,4.62
2022-12-28T19:56:29.292Z,4.22
2022-12-28T19:59:05.087Z,4.50
2022-12-28T20:01:35.113Z,4.68
2022-12-28T20:04:08.849Z,5.12
2022-12-28T20:06:40.912Z,5.55
2022-12-28T20:09:08.650Z,7.22
2022-12-28T20:11:38.549Z,4.93
2022-12-28T20:14:06.421Z,4.72
2022-12-28T20:16:37.412Z,6.65
2022-12-28T20:19:09.747Z,5.43
2022-12-28T20:21:39.266Z,7.20
2022-12-28T20:24:07.478Z,5.45
2022-12-28T20:26:35.880Z,5.75
2022-12-28T20:29:05.172Z,5.82
2022-12-28T20:31:33.071Z,4.40
2022-12-28T20:34:01.011Z,4.60
2022-12-28T20:36:29.955Z,6.50
2022-12-28T20:38:58.240Z,6.20
2022-12-28T20:41:52.014Z,6.40
2022-12-28T20:44:29.296Z,4.97
2022-12-28T20:46:57.820Z,5.18
2022-12-28T20:49:27.375Z,5.28
2022-12-28T20:51:55.343Z,7.60
2022-12-28T20:54:23.891Z,10.38
2022-12-28T20:56:55.334Z,7.20
2022-12-28T20:59:23.925Z,5.68
2022-12-28T21:01:51.658Z,6.45
2022-12-28T21:04:19.607Z,5.07
2022-12-28T21:06:47.345Z,6.37
2022-12-28T21:11:42.904Z,9.85
2022-12-28T21:14:10.583Z,7.18
2022-12-28T21:16:38.492Z,7.62
2022-12-28T21:19:06.168Z,8.40
2022-12-28T21:21:33.885Z,8.70
2022-12-28T21:24:05.731Z,8.80
2022-12-28T21:26:33.487Z,6.35
2022-12-28T21:29:01.157Z,8.57
2022-12-28T21:31:28.861Z,8.10
2022-12-28T21:33:57.365Z,7.07
2022-12-28T21:36:25.245Z,6.37
2022-12-28T21:38:53.004Z,6.60
2022-12-28T21:41:42.657Z,6.93
2022-12-28T21:44:13.276Z,7.53
2022-12-28T21:46:41.535Z,6.05
2022-12-28T21:49:09.855Z,6.57
2022-12-28T21:51:39.606Z,7.50
2022-12-28T21:54:18.882Z,6.28
2022-12-28T21:56:50.008Z,6.05
2022-12-28T21:59:17.788Z,6.40
2022-12-28T22:02:04.245Z,8.00
2022-12-28T22:04:55.516Z,6.15
2022-12-28T22:07:26.931Z,5.37
2022-12-28T22:10:30.176Z,4.72
2022-12-28T22:12:57.960Z,5.97
2022-12-28T22:15:46.347Z,5.35
2022-12-28T22:19:00.880Z,4.85
2022-12-28T22:21:10.167Z,4.35
2022-12-28T22:23:37.821Z,4.68
2022-12-28T22:26:05.693Z,3.92
2022-12-28T22:28:33.667Z,3.85
2022-12-28T22:31:06.210Z,3.00
2022-12-28T22:33:33.997Z,2.83
2022-12-28T22:36:11.409Z,2.75
2022-12-28T22:38:39.142Z,3.55
2022-12-28T22:41:07.131Z,3.12
2022-12-28T22:43:35.045Z,4.12
2022-12-28T22:46:04.466Z,3.12
2022-12-28T22:48:32.872Z,4.37
2022-12-28T22:51:09.014Z,2.50
2022-12-28T22:53:40.245Z,3.35
2022-12-28T22:56:11.705Z,4.10
2022-12-28T22:58:39.459Z,4.40
2022-12-28T23:01:13.159Z,4.15
2022-12-28T23:03:42.434Z,3.20
2022-12-28T23:06:11.720Z,3.50
2022-12-28T23:08:39.835Z,5.00
2022-12-28T23:11:27.988Z,4.00
2022-12-28T23:13:55.667Z,2.55
2022-12-28T23:16:23.447Z,3.90
2022-12-28T23:19:09.927Z,2.95
2022-12-28T23:21:56.184Z,3.53
2022-12-28T23:24:42.650Z,2.97
2022-12-28T23:27:22.784Z,3.55
2022-12-28T23:29:51.844Z,3.12
2022-12-28T23:32:19.611Z,3.28
2022-12-28T23:34:50.476Z,3.85
2022-12-28T23:37:19.120Z,3.42
2022-12-28T23:39:46.839Z,3.80
2022-12-28T23:42:14.482Z,3.45
2022-12-28T23:44:42.156Z,2.80
2022-12-28T23:47:09.964Z,4.25
2022-12-28T23:49:37.635Z,3.65
2022-12-28T23:52:05.430Z,3.25
2022-12-28T23:54:33.136Z,3.72
2022-12-28T23:57:00.878Z,3.55
2022-12-28T23:59:28.576Z,2.83
